createdAt,value
2023-02-17T00:02:06.531Z,100841.83
2023-02-17T00:06:59.617Z,100844.20
2023-02-17T00:11:53.404Z,100845.48
2023-02-17T00:16:46.955Z,100841.14
2023-02-17T00:21:39.721Z,100835.09
2023-02-17T00:26:32.481Z,100832.90
2023-02-17T00:31:25.608Z,100831.11
2023-02-17T00:36:20.733Z,100821.81
2023-02-17T00:41:13.561Z,100818.35
2023-02-17T00:46:07.405Z,100816.75
2023-02-17T00:51:00.778Z,100819.64
2023-02-17T00:55:53.598Z,100811.42
2023-02-17T01:00:46.430Z,100806.77
2023-02-17T01:05:47.971Z,100804.66
2023-02-17T01:10:43.019Z,100795.40
2023-02-17T01:15:47.766Z,100790.72
2023-02-17T01:20:42.063Z,100784.20
2023-02-17T01:25:43.299Z,100779.36
2023-02-17T01:30:36.543Z,100773.24
2023-02-17T01:35:29.370Z,100769.82
2023-02-17T01:40:22.202Z,100767.36
2023-02-17T01:45:20.961Z,100768.87
2023-02-17T01:50:14.064Z,100758.80
2023-02-17T01:55:12.247Z,100748.32
2023-02-17T02:00:07.855Z,100748.40
2023-02-17T02:05:05.862Z,100750.95
2023-02-17T02:10:00.378Z,100745.09
2023-02-17T02:14:56.663Z,100745.84
2023-02-17T02:20:17.792Z,100745.65
2023-02-17T02:25:38.030Z,100745.10
2023-02-17T02:31:09.510Z,100739.67
2023-02-17T02:36:30.791Z,100735.05
2023-02-17T02:41:30.738Z,100733.42
2023-02-17T02:46:23.871Z,100735.31
2023-02-17T02:51:35.798Z,100729.69
2023-02-17T02:57:05.754Z,100729.75
2023-02-17T03:02:12.060Z,100719.19
2023-02-17T03:07:12.604Z,100709.11
2023-02-17T03:12:07.818Z,100707.73
2023-02-17T03:17:00.806Z,100715.45
2023-02-17T03:21:59.089Z,100720.06
2023-02-17T03:26:52.018Z,100720.88
2023-02-17T03:31:45.093Z,100722.20
2023-02-17T03:36:38.053Z,100721.44
2023-02-17T03:41:30.915Z,100716.14
2023-02-17T03:46:23.715Z,100719.95
2023-02-17T03:51:26.912Z,100721.48
2023-02-17T03:56:20.630Z,100719.65
2023-02-17T04:01:14.564Z,100716.80
2023-02-17T04:06:08.675Z,100716.77
2023-02-17T04:11:03.517Z,100721.73
2023-02-17T04:15:56.700Z,100720.38
2023-02-17T04:20:51.492Z,100695.06
2023-02-17T04:25:45.412Z,100693.00
2023-02-17T04:30:41.241Z,100693.27
2023-02-17T04:35:34.126Z,100693.00
2023-02-17T04:40:26.931Z,100690.91
2023-02-17T04:45:19.867Z,100688.65
2023-02-17T04:50:13.317Z,100694.08
2023-02-17T04:55:07.620Z,100685.98
2023-02-17T05:00:00.565Z,100687.44
2023-02-17T05:04:54.052Z,100674.39
2023-02-17T05:09:47.041Z,100660.40
2023-02-17T05:14:40.722Z,100645.36
2023-02-17T05:19:33.563Z,100670.64
2023-02-17T05:24:26.343Z,100669.56
2023-02-17T05:29:19.126Z,100656.17
2023-02-17T05:34:11.975Z,100647.27
2023-02-17T05:39:04.884Z,100646.29
2023-02-17T05:43:57.688Z,100639.77
2023-02-17T05:48:50.453Z,100641.97
2023-02-17T05:53:43.271Z,100653.95
2023-02-17T05:58:36.239Z,100647.94
2023-02-17T06:03:29.132Z,100646.21
2023-02-17T06:08:21.940Z,100630.79
2023-02-17T06:13:14.743Z,100634.27
2023-02-17T06:18:07.585Z,100631.42
2023-02-17T06:23:00.372Z,100637.88
2023-02-17T06:27:53.149Z,100638.50
2023-02-17T06:32:46.102Z,100630.66
2023-02-17T06:37:38.913Z,100636.45
2023-02-17T06:42:31.703Z,100632.67
2023-02-17T06:47:24.500Z,100631.79
2023-02-17T06:52:17.270Z,100628.68
2023-02-17T06:57:10.056Z,100628.61
2023-02-17T07:02:03.008Z,100633.36
2023-02-17T07:06:56.014Z,100620.43
2023-02-17T07:11:51.285Z,100612.23
2023-02-17T07:16:44.129Z,100606.52
2023-02-17T07:21:36.957Z,100609.05
2023-02-17T07:26:29.720Z,100610.28
2023-02-17T07:31:22.610Z,100605.42
2023-02-17T07:36:17.604Z,100595.30
2023-02-17T07:41:13.334Z,100591.27
2023-02-17T07:46:08.018Z,100591.48
2023-02-17T07:51:09.031Z,100597.14
2023-02-17T07:56:06.866Z,100602.95
2023-02-17T08:01:05.955Z,100599.48
2023-02-17T08:05:58.765Z,100596.23
2023-02-17T08:11:09.220Z,100583.35
2023-02-17T08:16:05.401Z,100589.93
2023-02-17T08:20:58.559Z,100581.02
2023-02-17T08:25:51.330Z,100581.23
2023-02-17T08:30:44.205Z,100571.40
2023-02-17T08:35:37.093Z,100572.18
2023-02-17T08:40:30.290Z,100572.62
2023-02-17T08:45:25.961Z,100570.19
2023-02-17T08:50:20.329Z,100564.98
2023-02-17T08:55:13.114Z,100556.04
2023-02-17T09:00:08.672Z,100549.43
2023-02-17T09:05:01.788Z,100549.98
2023-02-17T09:09:57.212Z,100544.71
2023-02-17T09:14:50.065Z,100539.14
2023-02-17T09:19:42.907Z,100542.73
2023-02-17T09:24:38.863Z,100542.23
2023-02-17T09:29:32.940Z,100542.61
2023-02-17T09:34:25.729Z,100535.27
2023-02-17T09:39:18.757Z,100529.04
2023-02-17T09:44:23.260Z,100523.49
2023-02-17T09:49:23.075Z,100514.68
2023-02-17T09:54:22.961Z,100510.83
2023-02-17T09:59:31.098Z,100501.86
2023-02-17T10:04:29.337Z,100493.95
2023-02-17T10:09:33.919Z,100488.81
2023-02-17T10:14:36.374Z,100483.52
2023-02-17T10:19:37.791Z,100475.35
2023-02-17T10:24:30.659Z,100468.58
2023-02-17T10:29:45.006Z,100468.38
2023-02-17T10:34:43.807Z,100470.39
2023-02-17T10:39:50.295Z,100469.41
2023-02-17T10:44:43.235Z,100461.14
2023-02-17T10:49:41.058Z,100456.83
2023-02-17T10:54:46.556Z,100448.67
2023-02-17T10:59:42.726Z,100434.34
2023-02-17T11:04:43.693Z,100424.95
2023-02-17T11:09:37.829Z,100415.63
2023-02-17T11:14:33.287Z,100403.08
2023-02-17T11:19:29.587Z,100395.09
2023-02-17T11:24:22.702Z,100378.93
2023-02-17T11:29:23.354Z,100370.23
2023-02-17T11:34:24.107Z,100355.20
2023-02-17T11:39:20.900Z,100337.89
2023-02-17T11:44:24.968Z,100331.59
2023-02-17T11:49:39.125Z,100316.81
2023-02-17T11:54:49.413Z,100302.98
2023-02-17T11:59:54.071Z,100299.07
2023-02-17T12:05:00.752Z,100285.02
2023-02-17T12:10:34.983Z,100279.58
2023-02-17T12:15:43.530Z,100268.56
2023-02-17T12:21:17.953Z,100256.43
2023-02-17T12:26:28.909Z,100244.34
2023-02-17T12:31:59.270Z,100229.33
2023-02-17T12:36:53.268Z,100217.98
2023-02-17T12:42:23.908Z,100197.84
2023-02-17T12:47:22.925Z,100186.06
2023-02-17T12:52:25.230Z,100175.27
2023-02-17T12:57:28.936Z,100169.24
2023-02-17T13:02:24.417Z,100164.82
2023-02-17T13:07:26.617Z,100165.68
2023-02-17T13:12:25.511Z,100160.17
2023-02-17T13:17:31.674Z,100150.61
2023-02-17T13:22:24.521Z,100140.52
2023-02-17T13:27:30.217Z,100135.33
2023-02-17T13:32:31.175Z,100122.61
2023-02-17T13:37:40.748Z,100117.30
2023-02-17T13:42:39.964Z,100113.39
2023-02-17T13:47:37.983Z,100108.41
2023-02-17T13:52:32.607Z,100098.58
2023-02-17T13:57:31.469Z,100095.48
2023-02-17T14:02:35.700Z,100091.88
2023-02-17T14:07:29.119Z,100080.16
2023-02-17T14:12:26.074Z,100069.30
2023-02-17T14:17:33.681Z,100063.98
2023-02-17T14:22:32.883Z,100056.02
2023-02-17T14:27:25.740Z,100039.27
2023-02-17T14:32:37.622Z,100029.73
2023-02-17T14:37:32.164Z,100013.70
2023-02-17T14:42:25.012Z,100002.03
2023-02-17T14:47:17.799Z,99993.44
2023-02-17T14:52:23.412Z,99975.52
2023-02-17T14:57:17.875Z,99962.06
2023-02-17T15:02:17.364Z,99949.66
2023-02-17T15:07:14.356Z,99933.23
2023-02-17T15:12:16.613Z,99927.00
2023-02-17T15:17:09.388Z,99918.52
2023-02-17T15:22:03.711Z,99911.95
2023-02-17T15:26:56.511Z,99903.34
2023-02-17T15:31:50.951Z,99895.23
2023-02-17T15:36:44.212Z,99884.27
2023-02-17T15:41:36.977Z,99874.44
2023-02-17T15:46:33.214Z,99869.08
2023-02-17T15:51:26.060Z,99858.05
2023-02-17T15:56:22.363Z,99843.28
2023-02-17T16:01:25.794Z,99832.65
2023-02-17T16:06:18.578Z,99827.88
2023-02-17T16:11:14.603Z,99817.07
2023-02-17T16:16:16.914Z,99809.33
2023-02-17T16:21:12.746Z,99798.98
2023-02-17T16:26:07.716Z,99795.23
2023-02-17T16:31:00.632Z,99782.38
2023-02-17T16:35:53.504Z,99773.95
2023-02-17T16:40:53.376Z,99757.44
2023-02-17T16:46:03.933Z,99751.20
2023-02-17T16:50:57.196Z,99742.37
2023-02-17T16:55:50.566Z,99740.81
2023-02-17T17:00:43.428Z,99728.05
2023-02-17T17:05:36.823Z,99725.80
2023-02-17T17:10:33.349Z,99714.79
2023-02-17T17:15:26.734Z,99700.34
2023-02-17T17:20:24.182Z,99687.11
2023-02-17T17:25:17.230Z,99678.84
2023-02-17T17:30:19.720Z,99660.58
2023-02-17T17:35:12.925Z,99657.67
2023-02-17T17:40:07.570Z,99648.38
2023-02-17T17:45:00.416Z,99634.98
2023-02-17T17:49:53.291Z,99617.44
2023-02-17T17:54:46.111Z,99609.16
2023-02-17T17:59:38.905Z,99598.98
2023-02-17T18:04:31.855Z,99588.63
2023-02-17T18:09:32.109Z,99592.26
2023-02-17T18:14:25.310Z,99579.33
2023-02-17T18:19:20.651Z,99576.25
2023-02-17T18:24:13.795Z,99568.17
2023-02-17T18:29:06.670Z,99559.05
2023-02-17T18:33:59.492Z,99549.05
2023-02-17T18:38:52.391Z,99544.58
2023-02-17T18:43:45.193Z,99533.39
2023-02-17T18:48:37.992Z,99518.59
2023-02-17T18:53:30.891Z,99506.19
2023-02-17T18:58:23.674Z,99507.60
2023-02-17T19:03:16.686Z,99501.41
2023-02-17T19:08:09.502Z,99505.75
2023-02-17T19:13:02.294Z,99507.38
2023-02-17T19:17:58.932Z,99499.84
2023-02-17T19:22:51.963Z,99494.67
2023-02-17T19:27:44.835Z,99486.27
2023-02-17T19:32:37.667Z,99476.83
2023-02-17T19:37:30.456Z,99479.95
2023-02-17T19:42:23.328Z,99469.98
2023-02-17T19:47:16.129Z,99467.60
2023-02-17T19:52:09.165Z,99451.94
2023-02-17T19:57:02.370Z,99452.51
2023-02-17T20:01:56.245Z,99445.30
2023-02-17T20:06:49.204Z,99446.05
2023-02-17T20:11:42.238Z,99442.12
2023-02-17T20:16:35.246Z,99437.85
2023-02-17T20:21:30.456Z,99447.04
2023-02-17T20:26:30.274Z,99444.52
2023-02-17T20:31:24.480Z,99436.63
2023-02-17T20:36:18.337Z,99427.69
2023-02-17T20:41:16.101Z,99422.91
2023-02-17T20:46:09.146Z,99420.73
2023-02-17T20:51:04.282Z,99414.40
2023-02-17T20:55:57.064Z,99406.83
2023-02-17T21:00:49.954Z,99408.93
2023-02-17T21:05:42.823Z,99403.95
2023-02-17T21:10:35.852Z,99400.69
2023-02-17T21:15:29.102Z,99396.21
2023-02-17T21:20:26.913Z,99398.63
2023-02-17T21:25:19.797Z,99375.30
2023-02-17T21:30:13.884Z,99378.77
2023-02-17T21:35:07.366Z,99360.96
2023-02-17T21:40:00.380Z,99360.47
2023-02-17T21:44:53.149Z,99355.29
2023-02-17T21:49:48.427Z,99358.23
2023-02-17T21:54:41.206Z,99359.08
2023-02-17T21:59:34.018Z,99361.16
2023-02-17T22:04:28.287Z,99353.91
2023-02-17T22:09:21.128Z,99350.10
2023-02-17T22:14:17.125Z,99348.73
2023-02-17T22:19:14.359Z,99363.57
2023-02-17T22:24:07.425Z,99393.80
2023-02-17T22:29:00.320Z,99368.38
2023-02-17T22:33:53.158Z,99376.66
2023-02-17T22:38:46.275Z,99375.77
2023-02-17T22:43:41.096Z,99367.95
2023-02-17T22:48:35.840Z,99358.73
2023-02-17T22:53:32.368Z,99357.63
2023-02-17T22:58:27.369Z,99370.89
2023-02-17T23:03:20.240Z,99378.95
2023-02-17T23:08:13.066Z,99385.52
2023-02-17T23:13:05.841Z,99384.48
2023-02-17T23:17:58.664Z,99389.83
2023-02-17T23:22:52.348Z,99373.40
2023-02-17T23:27:45.129Z,99377.86
2023-02-17T23:32:37.970Z,99382.69
2023-02-17T23:37:30.824Z,99382.17
2023-02-17T23:42:23.661Z,99382.33
2023-02-17T23:47:16.417Z,99390.90
2023-02-17T23:52:09.623Z,99387.21
2023-02-17T23:57:02.426Z,99388.38
